Terminal Aerodrome Forecast
Issued by NWS Wichita, KS

Home | Current Version | Previous Version | Graphics & Text | Print | Product List | Glossary On
Versions: 1 2 3 4 5 6 7 8 9 10 11 12 13 14 15 16 17 18 19 20 21
000
FTUS43 KICT 162126 AAC
TAFICT
TAF AMD
KICT 162126Z 1621/1718 27009KT P6SM OVC012
     FM170000 31011KT 5SM BR OVC008
     FM171400 32008KT P6SM SCT015=

USA.gov is the U.S. government's official web portal to all federal, state and local government web resources and services.